Time;durP1;ratioP1;P1;durP2;ratioP2;P2;SDS_P1;SDS_P2;PMS_P1;PMS_P2;Temp;Humidity;BMP_temperature;BMP_pressure;BME280_temperature;BME280_humidity;BME280_pressure;Samples;Min_cycle;Max_cycle;Signal;HPM_P1;HPM_P2
2023/10/11 00:00:32;;;;;;;9.30;4.20;;;20.10;99.90;;;;;;5091421;28;20208;-80
2023/10/11 00:03:06;;;;;;;6.97;5.13;;;20.10;99.90;;;;;;5083179;28;20235;-80
2023/10/11 00:05:40;;;;;;;6.75;4.50;;;20.00;99.90;;;;;;5087035;28;20666;-81
2023/10/11 00:08:09;;;;;;;7.75;4.40;;;20.00;99.90;;;;;;5089094;28;20193;-81
2023/10/11 00:10:43;;;;;;;9.68;5.03;;;20.00;99.90;;;;;;5092845;28;20197;-80
2023/10/11 00:13:11;;;;;;;8.65;4.70;;;20.00;99.90;;;;;;5083981;28;20217;-80
2023/10/11 00:15:39;;;;;;;10.25;4.55;;;20.00;99.90;;;;;;5097039;28;20189;-81
2023/10/11 00:18:08;;;;;;;7.63;4.65;;;19.90;99.90;;;;;;5093927;28;20201;-79
2023/10/11 00:20:50;;;;;;;9.38;4.82;;;19.90;99.90;;;;;;5095152;28;20201;-79
2023/10/11 00:23:21;;;;;;;8.05;4.35;;;19.90;99.90;;;;;;5094179;28;20223;-79
2023/10/11 00:25:50;;;;;;;8.02;4.35;;;19.90;99.90;;;;;;5096097;28;20200;-81
2023/10/11 00:28:22;;;;;;;7.18;4.95;;;19.90;99.90;;;;;;5093885;28;20193;-80
2023/10/11 00:30:53;;;;;;;8.55;4.82;;;19.90;99.90;;;;;;5090155;28;20201;-80
2023/10/11 00:33:22;;;;;;;7.90;4.63;;;19.80;99.90;;;;;;5091614;28;20690;-79
2023/10/11 00:35:51;;;;;;;9.02;4.95;;;19.80;99.90;;;;;;5096591;28;20208;-81
2023/10/11 00:38:20;;;;;;;9.32;5.40;;;19.70;99.90;;;;;;5093804;28;20197;-81
2023/10/11 00:41:00;;;;;;;7.20;4.70;;;19.70;99.90;;;;;;5089054;28;20204;-80
2023/10/11 00:43:39;;;;;;;11.00;4.75;;;19.70;99.90;;;;;;5095469;28;20223;-79
2023/10/11 00:46:08;;;;;;;9.80;5.28;;;19.70;99.90;;;;;;5102838;28;20205;-79
2023/10/11 00:48:46;;;;;;;9.07;4.75;;;19.70;99.90;;;;;;5099867;28;20197;-79
2023/10/11 00:51:14;;;;;;;6.57;4.50;;;19.60;99.90;;;;;;5106161;28;20185;-80
2023/10/11 00:53:41;;;;;;;7.85;4.07;;;19.60;99.90;;;;;;5100916;28;20224;-79
2023/10/11 00:56:09;;;;;;;8.27;4.97;;;19.60;99.90;;;;;;5100153;28;20201;-77
2023/10/11 00:58:39;;;;;;;6.47;4.85;;;19.60;99.90;;;;;;5103299;28;20201;-79
2023/10/11 01:01:08;;;;;;;7.60;5.18;;;19.60;99.90;;;;;;5097580;28;20259;-80
2023/10/11 01:03:37;;;;;;;8.90;5.00;;;19.60;99.90;;;;;;5106582;28;20221;-79
2023/10/11 01:06:05;;;;;;;10.32;5.20;;;19.60;99.90;;;;;;5103464;28;20185;-79
2023/10/11 01:08:38;;;;;;;9.77;5.15;;;19.50;99.90;;;;;;5105571;28;20340;-79
2023/10/11 01:11:11;;;;;;;10.35;5.53;;;19.50;99.90;;;;;;5106806;28;20216;-79
2023/10/11 01:13:42;;;;;;;10.05;5.07;;;19.60;99.90;;;;;;5104611;28;20213;-78
2023/10/11 01:16:14;;;;;;;8.38;4.85;;;19.50;99.90;;;;;;5103548;28;20193;-76
2023/10/11 01:18:43;;;;;;;12.57;5.32;;;19.50;99.90;;;;;;5104609;28;20205;-75
2023/10/11 01:21:13;;;;;;;12.40;5.60;;;19.50;99.90;;;;;;5100496;28;20200;-79
2023/10/11 01:23:41;;;;;;;9.93;5.07;;;19.50;99.90;;;;;;5108195;28;20223;-78
2023/10/11 01:26:09;;;;;;;10.13;5.63;;;19.40;99.90;;;;;;5106508;28;20193;-76
2023/10/11 01:28:37;;;;;;;8.35;4.68;;;19.50;99.90;;;;;;5102569;28;20214;-76
2023/10/11 01:31:09;;;;;;;8.25;5.30;;;19.40;99.90;;;;;;5092044;28;20199;-79
2023/10/11 01:33:37;;;;;;;12.63;6.60;;;19.40;99.90;;;;;;5107085;28;20218;-79
2023/10/11 01:36:06;;;;;;;9.85;4.80;;;19.30;99.90;;;;;;5108786;28;20205;-76
2023/10/11 01:38:45;;;;;;;10.93;5.32;;;19.30;99.90;;;;;;5101015;28;20212;-78
2023/10/11 01:41:15;;;;;;;7.38;4.60;;;19.30;99.90;;;;;;5105203;28;20192;-76
2023/10/11 01:43:45;;;;;;;10.68;5.35;;;19.30;99.90;;;;;;5106022;28;20229;-79
2023/10/11 01:46:16;;;;;;;7.90;4.75;;;19.30;99.90;;;;;;5115250;28;20205;-77
2023/10/11 01:48:44;;;;;;;8.65;4.93;;;19.30;99.90;;;;;;5106720;28;20217;-77
2023/10/11 01:51:15;;;;;;;9.48;4.38;;;19.30;99.90;;;;;;5106800;28;20201;-76
2023/10/11 01:53:45;;;;;;;9.48;5.25;;;19.20;99.90;;;;;;5102512;28;20221;-78
2023/10/11 01:56:13;;;;;;;10.05;4.90;;;19.20;99.90;;;;;;5101745;28;20219;-76
2023/10/11 01:58:42;;;;;;;9.13;5.13;;;19.20;99.90;;;;;;5102572;28;20597;-78
2023/10/11 02:01:21;;;;;;;12.80;5.57;;;19.20;99.90;;;;;;5100568;28;20202;-78
2023/10/11 02:03:53;;;;;;;10.27;5.30;;;19.20;99.90;;;;;;5092939;28;20212;-76
2023/10/11 02:06:22;;;;;;;7.32;4.80;;;19.20;99.90;;;;;;5100366;28;20204;-79
2023/10/11 02:08:52;;;;;;;8.05;4.57;;;19.20;99.90;;;;;;5091071;28;20213;-79
2023/10/11 02:11:23;;;;;;;9.38;4.47;;;19.10;99.90;;;;;;5093740;28;20209;-79
2023/10/11 02:13:52;;;;;;;7.43;4.47;;;19.20;99.90;;;;;;5085489;28;20222;-79
2023/10/11 02:16:20;;;;;;;9.60;5.13;;;19.10;99.90;;;;;;5089106;28;20192;-79
2023/10/11 02:18:51;;;;;;;11.63;5.47;;;19.10;99.90;;;;;;5088875;28;20196;-79
2023/10/11 02:21:19;;;;;;;9.23;4.78;;;19.10;99.90;;;;;;5086819;28;20232;-79
2023/10/11 02:23:47;;;;;;;8.63;4.57;;;19.00;99.90;;;;;;5089956;28;20232;-79
2023/10/11 02:26:16;;;;;;;8.77;4.85;;;19.00;99.90;;;;;;5093372;28;20208;-78
2023/10/11 02:28:45;;;;;;;10.43;4.75;;;19.10;99.90;;;;;;5087629;28;20213;-77
2023/10/11 02:31:20;;;;;;;8.18;4.80;;;19.10;99.90;;;;;;5083729;28;20205;-79
2023/10/11 02:33:48;;;;;;;11.93;5.47;;;19.00;99.90;;;;;;5103124;28;20229;-78
2023/10/11 02:36:18;;;;;;;10.00;5.10;;;19.00;99.90;;;;;;5087999;28;20193;-79
2023/10/11 02:38:50;;;;;;;6.47;4.90;;;19.00;99.90;;;;;;5083814;28;20200;-79
2023/10/11 02:41:24;;;;;;;10.50;5.50;;;18.90;99.90;;;;;;5092667;28;20205;-79
2023/10/11 02:43:52;;;;;;;9.07;5.00;;;18.90;99.90;;;;;;5092737;28;20220;-79
2023/10/11 02:46:23;;;;;;;9.30;4.88;;;18.90;99.90;;;;;;5101833;28;20198;-79
2023/10/11 02:49:04;;;;;;;8.93;5.22;;;18.90;99.90;;;;;;5090791;28;20205;-77
2023/10/11 02:51:33;;;;;;;8.02;4.65;;;18.90;99.90;;;;;;5081203;28;20197;-77
2023/10/11 02:54:03;;;;;;;11.27;5.65;;;18.80;99.90;;;;;;5073357;28;20683;-77
2023/10/11 02:56:46;;;;;;;8.02;4.80;;;18.80;99.90;;;;;;5079457;28;20211;-78
2023/10/11 02:59:19;;;;;;;12.40;4.95;;;18.80;99.90;;;;;;5085944;28;20192;-77
2023/10/11 03:01:59;;;;;;;7.97;4.95;;;18.70;99.90;;;;;;5082298;28;20208;-77
2023/10/11 03:04:32;;;;;;;8.27;5.47;;;18.70;99.90;;;;;;5085753;28;20232;-77
2023/10/11 03:07:01;;;;;;;9.30;5.28;;;18.70;99.90;;;;;;5081258;28;20189;-77
2023/10/11 03:09:29;;;;;;;8.13;4.90;;;18.70;99.90;;;;;;5074442;28;20221;-78
2023/10/11 03:12:05;;;;;;;10.65;5.60;;;18.80;99.90;;;;;;5090680;28;20200;-78
2023/10/11 03:14:40;;;;;;;10.73;5.13;;;18.70;99.90;;;;;;5085816;28;20216;-78
2023/10/11 03:17:13;;;;;;;7.25;4.78;;;18.70;99.90;;;;;;5079866;28;20201;-78
2023/10/11 03:19:42;;;;;;;9.52;6.20;;;18.70;99.90;;;;;;5088089;28;20208;-78
2023/10/11 03:22:09;;;;;;;11.20;5.13;;;18.70;99.90;;;;;;5082448;28;20678;-78
2023/10/11 03:24:40;;;;;;;9.07;5.07;;;18.60;99.90;;;;;;5086962;28;20236;-78
2023/10/11 03:27:10;;;;;;;10.73;5.13;;;18.60;99.90;;;;;;5085913;28;20693;-78
2023/10/11 03:29:40;;;;;;;12.93;5.43;;;18.60;99.90;;;;;;5089451;28;20212;-78
2023/10/11 03:32:07;;;;;;;9.02;5.55;;;18.60;99.90;;;;;;5082961;28;20197;-78
2023/10/11 03:34:36;;;;;;;8.80;5.13;;;18.50;99.90;;;;;;5080326;28;20217;-78
2023/10/11 03:37:10;;;;;;;10.15;5.22;;;18.50;99.90;;;;;;5078005;28;20197;-78
2023/10/11 03:39:44;;;;;;;8.65;5.00;;;18.50;99.90;;;;;;5085539;28;20201;-78
2023/10/11 03:42:17;;;;;;;13.07;6.70;;;18.50;99.90;;;;;;5099468;28;20563;-78
2023/10/11 03:44:46;;;;;;;13.57;5.00;;;18.50;99.90;;;;;;5086307;28;20220;-78
2023/10/11 03:47:15;;;;;;;9.18;5.43;;;18.50;99.90;;;;;;5089351;28;20197;-78
2023/10/11 03:49:51;;;;;;;7.43;5.25;;;18.40;99.90;;;;;;5088605;28;20590;-78
2023/10/11 03:52:22;;;;;;;7.50;4.97;;;18.40;99.90;;;;;;5085870;28;20204;-78
2023/10/11 03:54:53;;;;;;;6.88;5.00;;;18.30;99.90;;;;;;5091746;28;20217;-78
2023/10/11 03:57:22;;;;;;;7.13;5.10;;;18.30;99.90;;;;;;5085976;28;20579;-78
2023/10/11 03:59:51;;;;;;;7.32;4.90;;;18.30;99.90;;;;;;5087596;28;20635;-78
2023/10/11 04:02:19;;;;;;;7.93;4.43;;;18.30;99.90;;;;;;5087761;28;20217;-78
2023/10/11 04:04:49;;;;;;;9.23;5.35;;;18.30;99.90;;;;;;5087717;28;20231;-78
2023/10/11 04:07:18;;;;;;;8.85;5.38;;;18.30;99.90;;;;;;5089546;28;20193;-78
2023/10/11 04:09:47;;;;;;;9.38;6.18;;;18.30;99.90;;;;;;5081917;28;20232;-78
2023/10/11 04:12:14;;;;;;;9.55;6.57;;;18.30;99.90;;;;;;5091248;28;20193;-78
2023/10/11 04:14:44;;;;;;;12.18;9.55;;;18.30;99.90;;;;;;5083779;28;21873;-78
2023/10/11 04:17:25;;;;;;;10.38;7.78;;;18.30;99.90;;;;;;5086461;28;20207;-78
2023/10/11 04:19:57;;;;;;;12.27;6.50;;;18.20;99.90;;;;;;5094015;28;20215;-78
2023/10/11 04:22:24;;;;;;;10.73;6.40;;;18.30;99.90;;;;;;5090204;28;20181;-78
2023/10/11 04:24:54;;;;;;;9.45;7.40;;;18.30;99.90;;;;;;5078447;28;20226;-78
2023/10/11 04:30:23;;;;;;;10.32;8.40;;;18.30;99.90;;;;;;5086307;28;20717;-77
2023/10/11 04:32:56;;;;;;;9.90;5.88;;;18.30;99.90;;;;;;5104885;28;20208;-78
2023/10/11 04:35:25;;;;;;;10.45;6.15;;;18.30;99.90;;;;;;5088143;28;20204;-78
2023/10/11 04:37:55;;;;;;;13.30;5.50;;;18.20;99.90;;;;;;5088350;28;20201;-78
2023/10/11 04:40:39;;;;;;;9.43;5.93;;;18.30;99.90;;;;;;5084547;28;20690;-78
2023/10/11 04:43:20;;;;;;;8.73;5.47;;;18.30;99.90;;;;;;5088838;28;20212;-78
2023/10/11 04:45:50;;;;;;;9.05;5.65;;;18.30;99.90;;;;;;5087358;28;20204;-78
2023/10/11 04:48:29;;;;;;;8.32;5.30;;;18.20;99.90;;;;;;5083545;28;20221;-78
2023/10/11 04:51:04;;;;;;;7.68;4.78;;;18.30;99.90;;;;;;5086954;28;20287;-78
2023/10/11 04:53:35;;;;;;;11.32;5.15;;;18.30;99.90;;;;;;5087125;28;20224;-77
2023/10/11 04:56:51;;;;;;;8.07;5.45;;;18.20;99.90;;;;;;5082922;28;20668;-78
2023/10/11 04:59:05;;;;;;;6.43;4.68;;;18.20;99.90;;;;;;5075280;28;20198;-77
2023/10/11 05:01:58;;;;;;;11.32;5.80;;;18.30;99.90;;;;;;5090040;28;20200;-78
2023/10/11 05:04:32;;;;;;;8.68;5.78;;;18.30;99.90;;;;;;5082171;28;20213;-78
2023/10/11 05:07:07;;;;;;;8.20;5.03;;;18.30;99.90;;;;;;5089392;28;20204;-79
2023/10/11 05:09:39;;;;;;;8.75;5.35;;;18.20;99.90;;;;;;5088319;28;20209;-78
2023/10/11 05:12:08;;;;;;;9.85;5.53;;;18.20;99.90;;;;;;5083674;28;20204;-78
2023/10/11 05:14:39;;;;;;;12.73;5.80;;;18.20;99.90;;;;;;5090573;28;20701;-78
2023/10/11 05:17:32;;;;;;;7.97;5.05;;;18.20;99.90;;;;;;5085278;28;20197;-79
2023/10/11 05:20:22;;;;;;;9.55;5.05;;;18.20;99.90;;;;;;5080781;28;20198;-79
2023/10/11 05:22:49;;;;;;;8.65;5.43;;;18.20;99.90;;;;;;5084594;28;20204;-78
2023/10/11 05:25:39;;;;;;;10.05;5.38;;;18.20;99.90;;;;;;5088637;28;20185;-78
2023/10/11 05:28:26;;;;;;;10.43;4.97;;;18.30;99.90;;;;;;5090159;28;20552;-78
2023/10/11 05:31:19;;;;;;;8.50;4.90;;;18.30;99.90;;;;;;5074418;28;20563;-78
2023/10/11 05:33:59;;;;;;;8.88;4.57;;;18.30;99.90;;;;;;5082507;28;20213;-78
2023/10/11 05:50:55;;;;;;;9.90;5.45;;;18.40;99.90;;;;;;5078287;28;20205;-81
2023/10/11 05:53:25;;;;;;;10.30;5.28;;;18.40;99.90;;;;;;5082479;28;20232;-82
2023/10/11 05:55:56;;;;;;;10.15;5.18;;;18.40;99.90;;;;;;5085404;28;20567;-81
2023/10/11 05:58:23;;;;;;;8.55;4.93;;;18.40;99.90;;;;;;5085009;28;20182;-81
2023/10/11 06:00:53;;;;;;;10.15;5.30;;;18.40;99.90;;;;;;5088011;28;20282;-81
2023/10/11 06:04:16;;;;;;;7.45;5.28;;;18.40;99.90;;;;;;5091747;28;20225;-82
2023/10/11 06:06:46;;;;;;;8.82;4.70;;;18.40;99.90;;;;;;5103627;28;20220;-81
2023/10/11 06:09:17;;;;;;;10.07;4.72;;;18.40;99.90;;;;;;5091174;28;20213;-82
2023/10/11 06:11:48;;;;;;;7.95;4.88;;;18.40;99.90;;;;;;5081726;28;20197;-81
2023/10/11 06:14:16;;;;;;;10.15;5.35;;;18.40;99.90;;;;;;5089846;28;20586;-81
2023/10/11 06:16:49;;;;;;;9.68;5.88;;;18.60;99.90;;;;;;5089766;28;20201;-82
2023/10/11 06:19:26;;;;;;;9.80;4.80;;;18.70;99.90;;;;;;5086148;28;20192;-82
2023/10/11 06:21:59;;;;;;;9.75;5.22;;;18.60;99.90;;;;;;5091441;28;20569;-82
2023/10/11 06:24:32;;;;;;;9.50;5.20;;;18.80;99.90;;;;;;5092917;28;20283;-82
2023/10/11 06:29:55;;;;;;;10.13;4.53;;;18.60;99.90;;;;;;5082533;28;20216;-82
2023/10/11 06:32:24;;;;;;;9.18;4.22;;;18.60;99.90;;;;;;5082728;28;20193;-82
2023/10/11 06:34:53;;;;;;;11.48;4.65;;;18.60;99.90;;;;;;5078194;28;20225;-81
2023/10/11 06:37:24;;;;;;;5.47;4.18;;;18.70;99.90;;;;;;5086397;28;20205;-78
2023/10/11 06:40:14;;;;;;;7.93;4.85;;;18.60;99.90;;;;;;5095751;28;20216;-79
2023/10/11 06:42:42;;;;;;;6.90;4.57;;;18.60;99.90;;;;;;5081911;28;20673;-78
2023/10/11 06:45:16;;;;;;;6.65;4.55;;;18.60;99.90;;;;;;5086088;28;20213;-78
2023/10/11 06:47:50;;;;;;;6.68;3.92;;;18.50;99.90;;;;;;5088278;28;20204;-78
2023/10/11 06:50:24;;;;;;;7.90;4.20;;;18.60;99.90;;;;;;5076001;28;20612;-78
2023/10/11 06:53:03;;;;;;;7.95;4.30;;;18.60;99.90;;;;;;5080540;28;20646;-79
2023/10/11 06:55:32;;;;;;;5.63;3.97;;;18.60;99.90;;;;;;5088487;28;20201;-79
2023/10/11 06:58:08;;;;;;;8.98;4.75;;;18.60;99.90;;;;;;5083469;28;20682;-78
2023/10/11 07:00:38;;;;;;;9.77;4.47;;;18.60;99.90;;;;;;5076842;28;20204;-78
2023/10/11 07:03:21;;;;;;;7.07;4.35;;;18.70;99.90;;;;;;5079675;28;20225;-79
2023/10/11 07:05:50;;;;;;;7.40;4.70;;;18.70;99.90;;;;;;5081339;28;20197;-78
2023/10/11 07:08:20;;;;;;;11.45;4.82;;;18.70;99.90;;;;;;5087582;28;20205;-79
2023/10/11 07:11:04;;;;;;;7.93;4.70;;;18.80;99.90;;;;;;5081361;28;20267;-78
2023/10/11 07:13:49;;;;;;;11.50;4.90;;;18.80;99.90;;;;;;5077483;28;20209;-78
2023/10/11 07:16:19;;;;;;;9.50;4.65;;;18.80;99.90;;;;;;5080847;28;20200;-78
2023/10/11 07:18:47;;;;;;;9.05;4.80;;;18.80;99.90;;;;;;5083137;28;20208;-78
2023/10/11 07:21:16;;;;;;;10.40;4.43;;;18.90;99.90;;;;;;5078163;28;20205;-78
2023/10/11 07:23:56;;;;;;;7.38;4.07;;;18.90;99.90;;;;;;5089198;28;20232;-78
2023/10/11 07:29:13;;;;;;;8.05;4.13;;;19.00;99.90;;;;;;5085715;28;20192;-79
2023/10/11 07:31:48;;;;;;;7.75;4.65;;;19.10;99.90;;;;;;5082682;28;20197;-79
2023/10/11 07:34:18;;;;;;;6.45;4.45;;;19.10;99.90;;;;;;5090949;28;20209;-79
2023/10/11 07:36:48;;;;;;;6.75;3.78;;;19.10;99.90;;;;;;5086821;28;20321;-78
2023/10/11 07:39:25;;;;;;;6.32;3.85;;;19.20;99.90;;;;;;5081539;28;20675;-79
2023/10/11 07:42:00;;;;;;;8.13;4.65;;;19.20;99.90;;;;;;5085656;28;20186;-79
2023/10/11 07:44:30;;;;;;;5.97;4.15;;;19.20;99.90;;;;;;5087149;28;20220;-79
2023/10/11 07:46:58;;;;;;;8.27;4.38;;;19.30;99.90;;;;;;5084082;28;20204;-79
2023/10/11 07:49:37;;;;;;;9.20;4.32;;;19.30;99.90;;;;;;5080410;28;20835;-79
2023/10/11 07:52:09;;;;;;;9.27;4.53;;;19.40;99.90;;;;;;5083432;28;20188;-78
2023/10/11 07:54:40;;;;;;;11.13;4.10;;;19.40;99.90;;;;;;5098395;28;20224;-80
2023/10/11 07:57:13;;;;;;;9.75;4.55;;;19.40;99.90;;;;;;5089428;28;20208;-78
2023/10/11 07:59:41;;;;;;;9.85;4.97;;;19.50;99.90;;;;;;5078037;28;20470;-79
2023/10/11 08:02:26;;;;;;;10.27;4.28;;;19.50;99.90;;;;;;5088632;28;20212;-79
2023/10/11 08:04:53;;;;;;;10.02;4.32;;;19.50;99.90;;;;;;5101409;27;20228;-79
2023/10/11 08:07:22;;;;;;;8.77;4.07;;;19.50;99.90;;;;;;5091803;28;20201;-79
2023/10/11 08:09:57;;;;;;;8.95;4.13;;;19.60;99.90;;;;;;5091251;28;20540;-79
2023/10/11 08:12:27;;;;;;;6.85;3.92;;;19.60;99.90;;;;;;5086443;28;20203;-78
2023/10/11 08:14:56;;;;;;;8.52;4.40;;;19.70;99.90;;;;;;5085727;28;20217;-79
2023/10/11 08:17:27;;;;;;;10.15;4.20;;;19.70;99.90;;;;;;5092763;28;20193;-79
2023/10/11 08:19:55;;;;;;;7.40;4.20;;;19.70;99.90;;;;;;5092202;28;21659;-79
2023/10/11 08:22:23;;;;;;;6.53;3.78;;;19.80;99.90;;;;;;5087394;28;20201;-79
2023/10/11 08:24:56;;;;;;;7.00;4.20;;;19.80;99.90;;;;;;5086527;28;20217;-79
2023/10/11 08:27:28;;;;;;;9.60;4.50;;;19.80;99.80;;;;;;5088192;28;20630;-79
2023/10/11 08:30:06;;;;;;;6.40;4.15;;;19.80;99.90;;;;;;5085940;28;20197;-79
2023/10/11 08:32:37;;;;;;;8.02;4.22;;;19.90;99.90;;;;;;5087258;28;20196;-79
2023/10/11 08:35:06;;;;;;;9.43;4.28;;;19.90;99.90;;;;;;5086924;28;20699;-79
2023/10/11 08:37:34;;;;;;;6.90;4.05;;;20.00;99.70;;;;;;5077032;28;20190;-79
2023/10/11 08:40:22;;;;;;;9.18;4.10;;;19.90;99.80;;;;;;5087083;28;20192;-79
2023/10/11 08:42:52;;;;;;;6.47;4.38;;;19.90;99.70;;;;;;5090605;28;20194;-80
2023/10/11 08:45:25;;;;;;;7.00;4.22;;;19.90;99.60;;;;;;5087763;28;20683;-79
2023/10/11 08:47:54;;;;;;;10.23;4.78;;;20.00;99.80;;;;;;5082229;28;20202;-78
2023/10/11 08:50:21;;;;;;;6.70;4.05;;;20.00;99.80;;;;;;5090146;28;20713;-79
2023/10/11 08:52:51;;;;;;;9.20;4.50;;;20.10;99.90;;;;;;5085016;28;20197;-79
2023/10/11 08:55:19;;;;;;;7.20;4.30;;;20.10;99.90;;;;;;5086574;28;20193;-78
2023/10/11 08:57:48;;;;;;;8.43;4.22;;;20.00;99.70;;;;;;5088892;28;20208;-79
2023/10/11 09:00:29;;;;;;;6.20;3.72;;;20.00;99.90;;;;;;5093785;28;20218;-79
2023/10/11 09:02:58;;;;;;;12.63;4.40;;;20.10;99.80;;;;;;5087824;28;20219;-80
2023/10/11 09:05:42;;;;;;;11.13;4.55;;;20.10;99.90;;;;;;5082784;28;20208;-79
2023/10/11 09:08:21;;;;;;;7.20;4.35;;;20.10;99.90;;;;;;5091608;28;20189;-79
2023/10/11 09:10:49;;;;;;;6.47;4.07;;;20.20;99.90;;;;;;5093366;28;20216;-80
2023/10/11 09:13:25;;;;;;;7.35;3.90;;;20.30;99.90;;;;;;5091434;28;20226;-80
2023/10/11 09:15:55;;;;;;;7.22;4.10;;;20.30;99.90;;;;;;5091916;28;20204;-80
2023/10/11 09:18:25;;;;;;;7.85;4.03;;;20.40;99.70;;;;;;5085085;28;20201;-80
2023/10/11 09:21:08;;;;;;;8.15;4.55;;;20.30;99.80;;;;;;5092751;28;20197;-80
2023/10/11 09:23:36;;;;;;;10.07;4.70;;;20.30;99.90;;;;;;5094157;28;20224;-80
2023/10/11 09:26:35;;;;;;;7.93;4.10;;;20.30;99.90;;;;;;5082637;28;20201;-81
2023/10/11 09:29:05;;;;;;;8.88;4.13;;;20.30;99.90;;;;;;5077775;28;20205;-83
2023/10/11 09:31:35;;;;;;;9.70;4.72;;;20.30;99.90;;;;;;5089702;28;20228;-83
2023/10/11 09:34:18;;;;;;;8.98;4.38;;;20.40;99.90;;;;;;5081220;28;20227;-82
2023/10/11 09:36:46;;;;;;;7.97;4.32;;;20.50;99.90;;;;;;5089699;28;20201;-82
2023/10/11 09:39:18;;;;;;;6.43;4.70;;;20.50;99.90;;;;;;5091497;28;20197;-82
2023/10/11 09:41:52;;;;;;;8.80;4.85;;;20.60;99.90;;;;;;5091078;28;20205;-81
2023/10/11 09:44:28;;;;;;;8.15;4.30;;;20.60;99.90;;;;;;5095201;28;20224;-83
2023/10/11 09:47:00;;;;;;;8.07;4.60;;;20.70;99.90;;;;;;5093034;28;20192;-82
2023/10/11 09:49:29;;;;;;;10.00;4.53;;;20.90;99.90;;;;;;5090426;28;20656;-82
2023/10/11 09:52:06;;;;;;;8.63;4.97;;;20.90;99.90;;;;;;5095146;28;20213;-82
2023/10/11 09:54:39;;;;;;;9.10;4.88;;;20.90;99.90;;;;;;5090136;28;20586;-82
2023/10/11 09:57:16;;;;;;;8.02;4.47;;;21.00;99.90;;;;;;5098980;28;20535;-83
2023/10/11 09:59:51;;;;;;;9.23;4.97;;;21.00;99.80;;;;;;5085329;28;20204;-82
2023/10/11 10:02:24;;;;;;;9.68;4.45;;;21.00;99.90;;;;;;5090093;28;20664;-82
2023/10/11 10:04:55;;;;;;;5.78;4.10;;;21.10;99.80;;;;;;5095944;28;20225;-83
2023/10/11 10:07:26;;;;;;;12.02;4.30;;;21.20;99.70;;;;;;5085830;28;20224;-83
2023/10/11 10:09:59;;;;;;;11.07;5.13;;;21.20;99.40;;;;;;5095512;28;20212;-83
2023/10/11 10:12:32;;;;;;;7.20;4.45;;;21.30;99.10;;;;;;5098020;28;20253;-83
2023/10/11 10:15:07;;;;;;;8.13;4.75;;;21.50;99.20;;;;;;5094198;28;20225;-83
2023/10/11 10:17:38;;;;;;;9.07;4.32;;;21.50;98.60;;;;;;5090098;28;20199;-83
2023/10/11 10:20:42;;;;;;;5.63;4.00;;;21.60;98.40;;;;;;5088456;28;20196;-84
2023/10/11 10:23:32;;;;;;;8.15;4.47;;;21.60;98.30;;;;;;5093730;28;20216;-84
2023/10/11 10:26:43;;;;;;;7.57;3.92;;;21.70;98.70;;;;;;5096116;28;20201;-84
2023/10/11 10:29:14;;;;;;;10.38;4.25;;;21.70;98.40;;;;;;5088303;28;20205;-84
2023/10/11 10:32:04;;;;;;;7.45;4.47;;;21.60;97.80;;;;;;5092007;28;20224;-84
2023/10/11 10:34:33;;;;;;;10.48;4.60;;;21.70;96.80;;;;;;5091984;28;20217;-84
2023/10/11 10:37:06;;;;;;;10.63;4.43;;;21.80;96.90;;;;;;5096486;28;20213;-83
2023/10/11 10:39:36;;;;;;;10.82;4.93;;;21.80;96.50;;;;;;5086807;28;20193;-84
2023/10/11 10:42:12;;;;;;;11.68;4.50;;;21.80;96.10;;;;;;5086813;28;20208;-84
2023/10/11 10:44:51;;;;;;;11.45;4.32;;;21.90;96.00;;;;;;5092831;28;20225;-85
2023/10/11 10:47:28;;;;;;;9.98;4.15;;;21.90;95.40;;;;;;5085586;28;20194;-81
2023/10/11 10:49:56;;;;;;;10.23;4.53;;;21.90;95.60;;;;;;5090265;28;20197;-80
2023/10/11 10:52:29;;;;;;;8.93;4.65;;;21.90;95.80;;;;;;5092952;28;20223;-81
2023/10/11 10:55:03;;;;;;;15.13;4.97;;;22.00;95.80;;;;;;5093632;28;20223;-81
2023/10/11 10:57:36;;;;;;;6.88;4.22;;;22.20;95.80;;;;;;5094294;28;20188;-81
2023/10/11 11:00:05;;;;;;;11.57;4.72;;;22.10;95.90;;;;;;5093810;28;20197;-80
2023/10/11 11:02:35;;;;;;;10.68;4.40;;;22.00;95.70;;;;;;5095504;28;20196;-81
2023/10/11 11:05:13;;;;;;;9.50;4.32;;;22.10;95.70;;;;;;5092390;28;20758;-81
2023/10/11 11:07:47;;;;;;;12.95;4.90;;;22.20;95.90;;;;;;5094537;28;20673;-80
2023/10/11 11:10:19;;;;;;;8.85;4.50;;;22.20;95.90;;;;;;5090276;28;20207;-80
2023/10/11 11:12:47;;;;;;;11.85;4.78;;;22.30;95.60;;;;;;5091928;28;20220;-81
2023/10/11 11:15:20;;;;;;;13.88;4.95;;;22.40;95.70;;;;;;5084598;28;20204;-81
2023/10/11 11:17:49;;;;;;;8.32;5.10;;;22.50;95.40;;;;;;5082360;28;20663;-80
2023/10/11 11:20:32;;;;;;;14.15;4.97;;;22.50;95.70;;;;;;5090355;28;20196;-81
2023/10/11 11:23:00;;;;;;;10.88;4.85;;;22.70;95.50;;;;;;5075930;28;20204;-81
2023/10/11 11:25:29;;;;;;;8.90;4.95;;;22.70;95.40;;;;;;5089299;28;20201;-81
2023/10/11 11:28:14;;;;;;;12.55;5.18;;;22.90;95.50;;;;;;5084819;28;20646;-81
2023/10/11 11:30:44;;;;;;;9.75;4.22;;;22.90;95.30;;;;;;5087087;28;20674;-80
2023/10/11 11:33:21;;;;;;;11.98;5.43;;;22.90;95.60;;;;;;5088635;28;20590;-80
2023/10/11 11:35:54;;;;;;;11.05;4.35;;;22.90;95.70;;;;;;5096290;28;20196;-80
2023/10/11 11:38:21;;;;;;;12.20;4.53;;;22.90;96.00;;;;;;5097389;28;20193;-80
2023/10/11 11:40:51;;;;;;;14.82;6.35;;;23.00;95.90;;;;;;5090814;28;20279;-80
2023/10/11 11:43:20;;;;;;;10.10;4.32;;;23.30;95.60;;;;;;5090702;28;20218;-79
2023/10/11 11:45:47;;;;;;;11.43;4.70;;;23.50;95.80;;;;;;5077660;28;20201;-80
2023/10/11 11:48:23;;;;;;;14.18;5.28;;;23.70;95.70;;;;;;5094202;28;20199;-79
2023/10/11 11:50:51;;;;;;;13.13;5.00;;;23.70;95.00;;;;;;5085301;28;20197;-78
2023/10/11 11:53:18;;;;;;;11.68;5.22;;;23.60;95.20;;;;;;5085778;28;20224;-79
2023/10/11 11:55:45;;;;;;;15.27;5.28;;;23.60;95.40;;;;;;5080665;28;20202;-78
2023/10/11 11:58:16;;;;;;;10.65;5.07;;;23.40;95.60;;;;;;5088208;28;20200;-78
2023/10/11 12:00:45;;;;;;;11.98;5.13;;;23.50;95.70;;;;;;5090420;28;20197;-78
2023/10/11 12:03:13;;;;;;;14.75;5.00;;;23.60;95.70;;;;;;5089791;28;20209;-78
2023/10/11 12:05:40;;;;;;;12.38;4.63;;;23.60;95.70;;;;;;5095261;28;20204;-78
2023/10/11 12:08:46;;;;;;;13.15;5.40;;;23.60;96.10;;;;;;5094285;28;20204;-78
2023/10/11 12:11:15;;;;;;;10.70;4.85;;;24.10;95.40;;;;;;5097522;28;20205;-78
2023/10/11 12:13:43;;;;;;;15.65;5.35;;;24.10;95.40;;;;;;5090300;28;20221;-78
2023/10/11 12:16:10;;;;;;;11.75;5.32;;;24.50;95.10;;;;;;5095248;28;20185;-78
2023/10/11 12:18:37;;;;;;;10.65;4.60;;;24.50;95.10;;;;;;5093825;28;20655;-78
2023/10/11 12:21:11;;;;;;;14.20;4.82;;;24.50;95.00;;;;;;5093748;28;20197;-78
2023/10/11 12:23:46;;;;;;;10.60;4.90;;;24.00;95.50;;;;;;5094066;28;20224;-78
2023/10/11 12:26:17;;;;;;;12.38;5.68;;;24.00;95.60;;;;;;5087509;28;20185;-78
2023/10/11 12:28:44;;;;;;;11.63;4.55;;;24.10;95.80;;;;;;5094305;28;20203;-78
2023/10/11 12:31:11;;;;;;;10.90;5.32;;;24.40;95.60;;;;;;5092937;28;20193;-78
2023/10/11 12:33:39;;;;;;;12.75;4.85;;;24.20;95.70;;;;;;5092992;28;20216;-78
2023/10/11 12:36:07;;;;;;;9.80;5.10;;;24.20;95.80;;;;;;5092495;28;20565;-78
2023/10/11 12:38:36;;;;;;;11.18;5.07;;;24.10;95.80;;;;;;5092848;28;20582;-78
2023/10/11 12:41:05;;;;;;;13.48;4.90;;;24.10;96.10;;;;;;5092538;28;20205;-79
2023/10/11 12:43:33;;;;;;;11.95;5.35;;;24.10;96.10;;;;;;5094878;28;20209;-79
2023/10/11 12:46:01;;;;;;;9.38;4.82;;;24.30;95.70;;;;;;5092553;28;20201;-79
2023/10/11 12:48:29;;;;;;;12.30;4.30;;;24.00;96.30;;;;;;5093891;28;20201;-79
2023/10/11 12:50:58;;;;;;;9.05;4.78;;;24.10;96.40;;;;;;5090409;28;20662;-79
2023/10/11 12:53:29;;;;;;;12.07;5.57;;;24.20;96.10;;;;;;5093753;28;20224;-78
2023/10/11 12:55:56;;;;;;;9.30;4.43;;;24.30;96.60;;;;;;5092446;28;20216;-78
2023/10/11 12:58:27;;;;;;;7.75;4.93;;;24.20;96.20;;;;;;5094538;28;20205;-78
2023/10/11 13:01:04;;;;;;;14.63;5.75;;;24.20;96.00;;;;;;5092820;28;20205;-78
2023/10/11 13:03:37;;;;;;;13.25;4.93;;;24.20;96.00;;;;;;5089431;28;20213;-78
2023/10/11 13:06:09;;;;;;;10.15;5.00;;;24.20;96.20;;;;;;5091305;28;20208;-78
2023/10/11 13:08:37;;;;;;;12.65;5.30;;;24.40;95.90;;;;;;5091096;28;20651;-78
2023/10/11 13:11:10;;;;;;;13.75;5.28;;;24.40;95.70;;;;;;5093139;28;20201;-78
2023/10/11 13:13:38;;;;;;;11.10;4.45;;;24.30;95.70;;;;;;5092993;28;20217;-78
2023/10/11 13:16:08;;;;;;;9.68;4.63;;;24.40;96.00;;;;;;5092119;28;20209;-78
2023/10/11 13:18:37;;;;;;;19.50;5.18;;;24.30;95.80;;;;;;5087400;28;20190;-78
2023/10/11 13:21:05;;;;;;;10.30;4.55;;;24.40;96.10;;;;;;5088522;28;20201;-78
2023/10/11 13:23:35;;;;;;;9.55;5.13;;;24.40;95.80;;;;;;5092240;28;20232;-78
2023/10/11 13:26:07;;;;;;;10.90;4.80;;;24.50;96.40;;;;;;5085897;28;20214;-78
2023/10/11 13:28:34;;;;;;;12.52;5.10;;;24.20;95.80;;;;;;5091693;28;20710;-78
2023/10/11 13:31:02;;;;;;;9.48;4.22;;;24.30;95.60;;;;;;5083177;28;20225;-77
2023/10/11 13:33:32;;;;;;;10.90;4.82;;;24.10;96.10;;;;;;5099980;28;20709;-77